Ardmore, Oklahoma
Current Conditions -  °F | °C
As of 6:35 PM on Monday 24 Nov 2014 (Local Time) from K1F0 Reporting Station
Clear Clear  
Wind Chill:   Ceiling: Unl
Heat Index:   Visibility: 10mi
Dew Point: -6°   Wind: 0mph
Humidity: 34%   Direction: NA
Pressure: 30.07"   Gusts: NA
Location:  34.17°N, 97.13°W
Report Text: K1F0 250035Z AUTO 00000KT 10SM CLR 09/M06 A3007 RMK AO2
Loading
Personal Weather Stations






























Interactive Weather Map New forecast layout! Learn more

10-Day Weather Forecast

Advertisements
Track Severe Weather on mobile